Time;durP1;ratioP1;P1;durP2;ratioP2;P2;SDS_P1;SDS_P2;PMS_P1;PMS_P2;Temp;Humidity;BMP_temperature;BMP_pressure;BME280_temperature;BME280_humidity;BME280_pressure;Samples;Min_cycle;Max_cycle;Signal;HPM_P1;HPM_P2
2021/03/03 00:01:17;;;;;;;;;;;;;;;7.32;83.38;101616.19;6139339;23;19915;-74
2021/03/03 00:03:43;;;;;;;;;;;;;;;7.35;83.90;101605.50;6139090;23;19990;-74
2021/03/03 00:06:08;;;;;;;;;;;;;;;7.35;83.90;101623.97;6139762;23;19935;-73
2021/03/03 00:08:33;;;;;;;;;;;;;;;7.35;83.71;101619.31;6189939;23;20356;-73
2021/03/03 00:10:59;;;;;;;;;;;;;;;7.38;83.55;101618.81;6163671;23;19913;-73
2021/03/03 00:13:24;;;;;;;;;;;;;;;7.39;83.46;101623.25;6190700;23;19912;-73
2021/03/03 00:15:49;;;;;;;;;;;;;;;7.39;83.37;101614.13;6163340;23;19909;-73
2021/03/03 00:18:15;;;;;;;;;;;;;;;7.41;83.56;101623.03;6190016;23;19912;-74
2021/03/03 00:20:40;;;;;;;;;;;;;;;7.44;84.16;101616.13;6138921;23;19967;-73
2021/03/03 00:23:05;;;;;;;;;;;;;;;7.44;83.97;101622.53;6163442;23;19909;-73
2021/03/03 00:25:31;;;;;;;;;;;;;;;7.46;83.36;101614.81;6163919;23;19963;-73
2021/03/03 00:27:56;;;;;;;;;;;;;;;7.46;83.60;101630.56;6139758;23;19931;-74
2021/03/03 00:30:22;;;;;;;;;;;;;;;7.49;83.39;101621.78;6137810;23;19939;-73
2021/03/03 00:32:47;;;;;;;;;;;;;;;7.49;83.33;101627.31;6163519;23;19908;-73
2021/03/03 00:35:13;;;;;;;;;;;;;;;7.51;83.34;101628.72;6139468;23;19919;-73
2021/03/03 00:37:38;;;;;;;;;;;;;;;7.51;83.36;101622.38;6163401;23;19908;-74
2021/03/03 00:40:05;;;;;;;;;;;;;;;7.52;83.27;101624.03;6114382;23;19908;-73
2021/03/03 00:42:30;;;;;;;;;;;;;;;7.53;83.16;101623.81;6190359;23;19908;-74
2021/03/03 00:44:55;;;;;;;;;;;;;;;7.53;83.19;101617.44;6189412;23;19992;-73
2021/03/03 00:47:21;;;;;;;;;;;;;;;7.54;82.96;101622.72;6163565;23;20001;-73
2021/03/03 00:49:46;;;;;;;;;;;;;;;7.55;82.84;101623.53;6190550;23;19919;-73
2021/03/03 00:52:12;;;;;;;;;;;;;;;7.53;82.66;101617.44;6163414;23;19910;-74
2021/03/03 00:54:37;;;;;;;;;;;;;;;7.54;82.92;101608.88;6189524;23;19916;-73
2021/03/03 00:57:02;;;;;;;;;;;;;;;7.54;82.62;101613.59;6164019;23;19912;-74
2021/03/03 00:59:28;;;;;;;;;;;;;;;7.52;82.74;101615.75;6162648;23;19912;-73
2021/03/03 01:01:53;;;;;;;;;;;;;;;7.49;82.73;101619.84;6114062;23;19923;-73
2021/03/03 01:04:18;;;;;;;;;;;;;;;7.53;82.63;101617.44;6190292;23;20234;-73
2021/03/03 01:06:44;;;;;;;;;;;;;;;7.50;82.64;101616.00;6189351;23;19908;-73
2021/03/03 01:09:09;;;;;;;;;;;;;;;7.49;82.59;101614.31;6189520;23;19919;-73
2021/03/03 01:11:34;;;;;;;;;;;;;;;7.49;82.53;101619.00;6190270;23;19912;-73
2021/03/03 01:14:00;;;;;;;;;;;;;;;7.47;82.44;101613.75;6189064;23;19912;-73
2021/03/03 01:16:25;;;;;;;;;;;;;;;7.46;82.55;101623.09;6138483;23;19943;-73
2021/03/03 01:18:51;;;;;;;;;;;;;;;7.45;82.73;101624.19;6190373;23;20273;-73
2021/03/03 01:21:16;;;;;;;;;;;;;;;7.45;82.46;101624.19;6162943;23;20395;-73
2021/03/03 01:23:42;;;;;;;;;;;;;;;7.45;82.54;101628.91;6163420;23;19912;-73
2021/03/03 01:26:07;;;;;;;;;;;;;;;7.44;82.62;101628.06;6163602;23;19931;-73
2021/03/03 01:28:32;;;;;;;;;;;;;;;7.44;82.73;101625.28;6138202;23;19923;-73
2021/03/03 01:30:58;;;;;;;;;;;;;;;7.43;82.61;101629.13;6137494;23;19978;-73
2021/03/03 01:33:26;;;;;;;;;;;;;;;7.42;82.80;101635.75;6189590;23;19927;-73
2021/03/03 01:35:52;;;;;;;;;;;;;;;7.43;82.74;101637.41;6162982;23;19912;-73
2021/03/03 01:38:17;;;;;;;;;;;;;;;7.42;82.61;101627.47;6163014;23;19912;-73
2021/03/03 01:40:42;;;;;;;;;;;;;;;7.42;82.68;101626.63;6189572;23;19912;-74
2021/03/03 01:43:08;;;;;;;;;;;;;;;7.44;82.72;101627.19;6162704;23;19915;-73
2021/03/03 01:45:33;;;;;;;;;;;;;;;7.42;82.80;101632.97;6188793;23;19913;-73
2021/03/03 01:47:58;;;;;;;;;;;;;;;7.42;82.77;101632.16;6138671;23;19939;-74
2021/03/03 01:50:24;;;;;;;;;;;;;;;7.42;82.82;101626.63;6113607;23;19963;-73
2021/03/03 01:52:49;;;;;;;;;;;;;;;7.42;82.63;101632.16;6138143;23;19908;-73
2021/03/03 01:55:14;;;;;;;;;;;;;;;7.42;82.71;101634.91;6189455;23;19908;-73
2021/03/03 01:57:40;;;;;;;;;;;;;;;7.42;82.71;101635.75;6162870;23;19912;-73
2021/03/03 02:00:06;;;;;;;;;;;;;;;7.41;82.55;101636.84;6137884;23;19909;-73
2021/03/03 02:02:31;;;;;;;;;;;;;;;7.41;82.92;101635.97;6163473;23;19955;-74
2021/03/03 02:04:56;;;;;;;;;;;;;;;7.42;83.00;101637.69;6162745;23;19983;-73
2021/03/03 02:07:23;;;;;;;;;;;;;;;7.41;82.48;101634.09;6138176;23;19915;-73
2021/03/03 02:09:52;;;;;;;;;;;;;;;7.42;82.59;101623.84;6162917;23;20329;-73
2021/03/03 02:12:21;;;;;;;;;;;;;;;7.39;82.61;101620.50;6113757;23;19983;-73
2021/03/03 02:14:48;;;;;;;;;;;;;;;7.40;82.46;101613.03;6188560;23;20242;-74
2021/03/03 02:17:14;;;;;;;;;;;;;;;7.38;82.57;101615.19;6163144;23;19912;-73
2021/03/03 02:19:39;;;;;;;;;;;;;;;7.37;82.39;101610.78;6162714;23;20014;-73
2021/03/03 02:22:04;;;;;;;;;;;;;;;7.34;82.53;101611.25;6137909;23;19908;-73
2021/03/03 02:24:31;;;;;;;;;;;;;;;7.31;82.39;101607.06;6162853;23;19908;-73
2021/03/03 02:26:56;;;;;;;;;;;;;;;7.30;82.37;101599.00;6162815;23;20289;-73
2021/03/03 02:29:28;;;;;;;;;;;;;;;7.26;82.75;101598.66;6162360;23;19912;-73
2021/03/03 02:31:53;;;;;;;;;;;;;;;7.25;82.51;101597.00;6162853;23;19966;-73
2021/03/03 02:34:19;;;;;;;;;;;;;;;7.24;82.50;101583.41;6138240;23;20502;-73
2021/03/03 02:36:46;;;;;;;;;;;;;;;7.19;82.48;101581.41;6188538;23;19912;-73
2021/03/03 02:39:11;;;;;;;;;;;;;;;7.16;82.54;101581.91;6162625;23;19913;-73
2021/03/03 02:41:37;;;;;;;;;;;;;;;7.13;82.57;101585.13;6187284;23;19912;-73
2021/03/03 02:44:03;;;;;;;;;;;;;;;7.10;82.48;101582.84;6188022;23;19946;-73
2021/03/03 02:46:29;;;;;;;;;;;;;;;7.07;82.57;101583.34;6162712;23;20038;-73
2021/03/03 02:48:54;;;;;;;;;;;;;;;7.03;82.53;101590.47;6137984;23;19908;-73
2021/03/03 02:51:19;;;;;;;;;;;;;;;7.02;82.69;101592.38;6162228;23;19908;-73
2021/03/03 02:53:45;;;;;;;;;;;;;;;6.98;82.93;101587.59;6188921;23;19936;-73
2021/03/03 02:56:10;;;;;;;;;;;;;;;6.97;83.08;101595.03;6162540;23;19940;-73
2021/03/03 02:58:36;;;;;;;;;;;;;;;6.96;83.09;101593.34;6112758;23;19912;-74
2021/03/03 03:01:01;;;;;;;;;;;;;;;6.95;82.99;101594.44;6138063;23;20548;-73
2021/03/03 03:03:28;;;;;;;;;;;;;;;6.94;83.04;101592.75;6162761;23;19915;-73
2021/03/03 03:06:00;;;;;;;;;;;;;;;6.92;82.99;101590.22;6188472;23;19932;-73
2021/03/03 03:08:25;;;;;;;;;;;;;;;6.91;83.41;101584.97;6162578;23;20310;-74
2021/03/03 03:10:51;;;;;;;;;;;;;;;6.91;83.27;101576.69;6137649;23;19912;-73
2021/03/03 03:13:16;;;;;;;;;;;;;;;6.90;83.46;101577.75;6188739;23;20511;-73
2021/03/03 03:15:42;;;;;;;;;;;;;;;6.90;83.21;101583.28;6162319;23;19963;-73
2021/03/03 03:18:12;;;;;;;;;;;;;;;6.90;83.15;101581.34;6162445;23;19919;-74
2021/03/03 03:20:37;;;;;;;;;;;;;;;6.89;83.31;101587.13;6188653;23;19919;-73
2021/03/03 03:23:03;;;;;;;;;;;;;;;6.88;83.33;101580.78;6162391;23;20330;-73
2021/03/03 03:25:28;;;;;;;;;;;;;;;6.88;83.25;101582.66;6188790;23;19908;-73
2021/03/03 03:27:54;;;;;;;;;;;;;;;6.86;83.24;101577.41;6162048;23;20079;-73
2021/03/03 03:30:20;;;;;;;;;;;;;;;6.86;83.26;101587.63;6187580;23;19915;-73
2021/03/03 03:32:45;;;;;;;;;;;;;;;6.84;83.06;101581.50;6137751;23;19944;-73
2021/03/03 03:35:11;;;;;;;;;;;;;;;6.82;83.11;101580.88;6137425;23;19923;-73
2021/03/03 03:37:37;;;;;;;;;;;;;;;6.82;83.19;101589.16;6162898;23;19912;-73
2021/03/03 03:40:03;;;;;;;;;;;;;;;6.81;83.26;101584.75;6187325;23;19913;-73
2021/03/03 03:42:29;;;;;;;;;;;;;;;6.81;83.27;101577.28;6162090;23;19990;-73
2021/03/03 03:44:54;;;;;;;;;;;;;;;6.80;83.31;101581.16;6162147;23;19936;-73
2021/03/03 03:47:19;;;;;;;;;;;;;;;6.80;83.10;101583.03;6162547;23;19931;-74
2021/03/03 03:49:45;;;;;;;;;;;;;;;6.79;83.28;101584.97;6188250;23;19959;-73
2021/03/03 03:52:13;;;;;;;;;;;;;;;6.78;83.28;101591.59;6188820;23;19908;-73
2021/03/03 03:54:39;;;;;;;;;;;;;;;6.79;83.34;101596.00;6189297;23;20315;-73
2021/03/03 03:57:04;;;;;;;;;;;;;;;6.76;83.42;101604.78;6190113;23;19931;-73
2021/03/03 03:59:30;;;;;;;;;;;;;;;6.78;83.20;101607.31;6190190;23;19920;-73
2021/03/03 04:01:55;;;;;;;;;;;;;;;6.77;83.38;101612.00;6164231;23;19936;-73
2021/03/03 04:04:20;;;;;;;;;;;;;;;6.77;83.55;101608.38;6188596;23;19947;-73
2021/03/03 04:06:46;;;;;;;;;;;;;;;6.74;83.62;101609.69;6139368;23;20265;-73
2021/03/03 04:09:11;;;;;;;;;;;;;;;6.76;83.73;101618.59;6190456;23;19908;-73
2021/03/03 04:11:37;;;;;;;;;;;;;;;6.77;83.54;101620.28;6163733;23;19979;-73
2021/03/03 04:14:08;;;;;;;;;;;;;;;6.79;83.84;101631.06;6163596;23;19995;-74
2021/03/03 04:16:33;;;;;;;;;;;;;;;6.79;83.93;101625.56;6190503;23;20424;-73
2021/03/03 04:18:58;;;;;;;;;;;;;;;6.79;83.91;101622.78;6138749;23;19916;-73
2021/03/03 04:21:24;;;;;;;;;;;;;;;6.79;84.04;101620.03;6163820;23;19958;-73
2021/03/03 04:23:49;;;;;;;;;;;;;;;6.80;84.02;101614.28;6164119;23;19916;-73
2021/03/03 04:26:14;;;;;;;;;;;;;;;6.80;83.87;101614.28;6189753;23;20344;-74
2021/03/03 04:28:40;;;;;;;;;;;;;;;6.81;83.76;101618.72;6163478;23;19919;-74
2021/03/03 04:31:05;;;;;;;;;;;;;;;6.83;83.67;101613.78;6163108;23;19987;-73
2021/03/03 04:33:31;;;;;;;;;;;;;;;6.83;83.71;101616.56;6189729;23;19947;-74
2021/03/03 04:35:56;;;;;;;;;;;;;;;6.83;83.62;101615.72;6164116;23;19912;-73
2021/03/03 04:38:21;;;;;;;;;;;;;;;6.83;83.83;101608.28;6190274;23;19912;-73
2021/03/03 04:40:47;;;;;;;;;;;;;;;6.84;84.00;101609.09;6163175;23;19975;-74
2021/03/03 04:43:12;;;;;;;;;;;;;;;6.84;83.82;101611.88;6190016;23;19931;-74
2021/03/03 04:45:38;;;;;;;;;;;;;;;6.83;83.68;101619.31;6163663;23;19923;-73
2021/03/03 04:48:03;;;;;;;;;;;;;;;6.85;83.44;101628.19;6163389;23;19919;-73
2021/03/03 04:50:29;;;;;;;;;;;;;;;6.86;83.43;101638.16;6163670;23;19940;-74
2021/03/03 04:52:54;;;;;;;;;;;;;;;6.86;83.60;101640.09;6190101;23;19912;-73
2021/03/03 04:55:19;;;;;;;;;;;;;;;6.86;83.71;101637.31;6189505;23;20215;-73
2021/03/03 04:57:45;;;;;;;;;;;;;;;6.85;83.81;101633.72;6138869;23;19912;-73
2021/03/03 05:00:10;;;;;;;;;;;;;;;6.85;83.62;101636.50;6138709;23;20369;-74
2021/03/03 05:02:35;;;;;;;;;;;;;;;6.86;83.60;101640.09;6163193;23;19915;-73
2021/03/03 05:05:01;;;;;;;;;;;;;;;6.85;83.69;101630.09;6189811;23;19915;-73
2021/03/03 05:07:26;;;;;;;;;;;;;;;6.87;83.98;101636.22;6189711;23;19943;-73
2021/03/03 05:09:51;;;;;;;;;;;;;;;6.85;83.89;101636.50;6189188;23;19915;-73
2021/03/03 05:12:17;;;;;;;;;;;;;;;6.86;83.72;101638.16;6190164;23;19927;-73
2021/03/03 05:14:42;;;;;;;;;;;;;;;6.88;83.87;101636.00;6163225;23;19912;-73
2021/03/03 05:17:07;;;;;;;;;;;;;;;6.87;83.74;101634.31;6189504;23;19915;-73
2021/03/03 05:19:33;;;;;;;;;;;;;;;6.89;83.86;101637.66;6163367;23;19955;-73
2021/03/03 05:21:58;;;;;;;;;;;;;;;6.89;83.96;101632.16;6189920;23;19947;-73
2021/03/03 05:24:24;;;;;;;;;;;;;;;6.90;83.68;101642.09;6162637;23;19912;-73
2021/03/03 05:26:49;;;;;;;;;;;;;;;6.91;83.75;101652.09;6163238;23;19909;-73
2021/03/03 05:29:14;;;;;;;;;;;;;;;6.92;83.96;101645.47;6189646;23;20388;-73
2021/03/03 05:31:40;;;;;;;;;;;;;;;6.91;84.29;101627.22;6161823;23;19908;-73
2021/03/03 05:34:05;;;;;;;;;;;;;;;6.93;83.85;101641.63;6162956;23;19947;-73
2021/03/03 05:36:30;;;;;;;;;;;;;;;6.93;83.78;101640.78;6190089;23;20318;-74
2021/03/03 05:38:56;;;;;;;;;;;;;;;6.94;84.01;101623.16;6162555;23;19983;-73
2021/03/03 05:41:22;;;;;;;;;;;;;;;6.94;84.34;101604.66;6162972;23;19908;-73
2021/03/03 05:43:47;;;;;;;;;;;;;;;6.93;84.10;101608.47;6163198;23;19962;-74
2021/03/03 05:46:13;;;;;;;;;;;;;;;6.94;83.79;101621.22;6162909;23;20345;-73
2021/03/03 05:48:41;;;;;;;;;;;;;;;6.93;83.72;101632.50;6162885;23;19959;-74
2021/03/03 05:51:07;;;;;;;;;;;;;;;6.94;83.70;101642.47;6163356;23;19908;-73
2021/03/03 05:53:32;;;;;;;;;;;;;;;6.96;83.66;101647.75;6162557;23;19915;-73
2021/03/03 05:55:58;;;;;;;;;;;;;;;6.93;83.83;101652.66;6189138;23;19947;-73
2021/03/03 05:58:27;;;;;;;;;;;;;;;6.92;83.77;101653.75;6163737;23;19983;-73
2021/03/03 06:00:53;;;;;;;;;;;;;;;6.92;83.91;101658.44;6162414;23;19915;-73
2021/03/03 06:03:18;;;;;;;;;;;;;;;6.91;84.26;101651.25;6138163;23;19909;-73
2021/03/03 06:05:47;;;;;;;;;;;;;;;6.90;84.10;101653.16;6163232;23;20454;-74
2021/03/03 06:08:14;;;;;;;;;;;;;;;6.88;84.12;101652.56;6162765;23;20027;-73
2021/03/03 06:10:39;;;;;;;;;;;;;;;6.87;83.99;101656.38;6188907;23;19999;-74
2021/03/03 06:13:05;;;;;;;;;;;;;;;6.86;84.06;101649.19;6138382;23;19919;-74
2021/03/03 06:15:30;;;;;;;;;;;;;;;6.85;84.10;101649.44;6188562;23;19915;-73
2021/03/03 06:17:56;;;;;;;;;;;;;;;6.86;84.30;101651.13;6162205;23;19919;-73
2021/03/03 06:20:21;;;;;;;;;;;;;;;6.83;84.33;101654.38;6189383;23;19915;-73
2021/03/03 06:22:46;;;;;;;;;;;;;;;6.83;84.12;101663.50;6137729;23;19935;-73
2021/03/03 06:25:21;;;;;;;;;;;;;;;6.81;84.48;101662.88;6188831;23;19908;-73
2021/03/03 06:27:47;;;;;;;;;;;;;;;6.80;84.69;101657.59;6189122;23;20290;-74
2021/03/03 06:30:16;;;;;;;;;;;;;;;6.78;84.92;101666.13;6161163;23;19915;-73
2021/03/03 06:32:51;;;;;;;;;;;;;;;6.78;84.91;101663.38;6188468;23;19912;-73
2021/03/03 06:35:17;;;;;;;;;;;;;;;6.78;84.55;101670.81;6162707;23;19904;-74
2021/03/03 06:37:52;;;;;;;;;;;;;;;6.75;84.42;101672.13;6162408;23;20219;-73
2021/03/03 06:40:18;;;;;;;;;;;;;;;6.76;84.54;101662.75;6161901;23;19935;-73
2021/03/03 06:42:43;;;;;;;;;;;;;;;6.77;84.54;101660.84;6163096;23;19912;-73
2021/03/03 06:45:09;;;;;;;;;;;;;;;6.75;84.51;101663.84;6162113;23;19932;-73
2021/03/03 06:47:37;;;;;;;;;;;;;;;6.75;84.33;101661.09;6162346;23;19986;-73
2021/03/03 06:50:12;;;;;;;;;;;;;;;6.77;84.21;101661.69;6137127;23;20348;-73
2021/03/03 06:52:41;;;;;;;;;;;;;;;6.75;84.26;101669.38;6162502;23;19912;-74
2021/03/03 06:55:06;;;;;;;;;;;;;;;6.76;84.44;101662.75;6162272;23;19915;-74
2021/03/03 06:57:32;;;;;;;;;;;;;;;6.78;84.23;101648.72;6162510;23;19908;-74
2021/03/03 06:59:57;;;;;;;;;;;;;;;6.77;84.20;101663.59;6188316;23;19918;-73
2021/03/03 07:02:22;;;;;;;;;;;;;;;6.77;84.26;101661.69;6162167;23;19908;-73
2021/03/03 07:04:48;;;;;;;;;;;;;;;6.78;83.94;101662.53;6137778;23;20333;-74
2021/03/03 07:07:17;;;;;;;;;;;;;;;6.78;84.41;101654.25;6135698;23;19912;-74
2021/03/03 07:09:43;;;;;;;;;;;;;;;6.80;84.62;101660.34;6161493;23;19912;-74
2021/03/03 07:12:12;;;;;;;;;;;;;;;6.81;84.63;101662.06;6186674;23;19924;-75
2021/03/03 07:14:38;;;;;;;;;;;;;;;6.83;84.17;101665.41;6162680;23;19916;-74
2021/03/03 07:17:07;;;;;;;;;;;;;;;6.82;84.22;101675.59;6188409;23;19912;-74
2021/03/03 07:19:33;;;;;;;;;;;;;;;6.84;84.46;101684.50;6162551;23;19920;-74
2021/03/03 07:21:59;;;;;;;;;;;;;;;6.86;84.41;101684.25;6162934;23;20439;-75
2021/03/03 07:24:25;;;;;;;;;;;;;;;6.85;84.18;101686.19;6188337;23;20489;-75
2021/03/03 07:26:50;;;;;;;;;;;;;;;6.85;84.44;101694.47;6137891;23;19935;-74
2021/03/03 07:29:15;;;;;;;;;;;;;;;6.87;84.45;101699.75;6188862;23;19915;-74
2021/03/03 07:31:41;;;;;;;;;;;;;;;6.87;84.50;101692.28;6138221;23;20303;-74
2021/03/03 07:34:06;;;;;;;;;;;;;;;6.89;84.32;101692.91;6190497;23;19917;-74
2021/03/03 07:36:32;;;;;;;;;;;;;;;6.88;84.44;101696.75;6190982;23;19908;-74
2021/03/03 07:38:57;;;;;;;;;;;;;;;6.89;84.39;101698.44;6139079;23;19916;-74
2021/03/03 07:41:23;;;;;;;;;;;;;;;6.91;84.39;101707.31;6139787;23;19908;-74
2021/03/03 07:43:49;;;;;;;;;;;;;;;6.93;84.60;101709.81;6164378;23;19959;-74
2021/03/03 07:46:14;;;;;;;;;;;;;;;6.93;84.93;101705.13;6164084;23;19974;-74
2021/03/03 07:48:40;;;;;;;;;;;;;;;6.93;84.53;101702.38;6139517;23;19908;-74
2021/03/03 07:51:06;;;;;;;;;;;;;;;6.94;84.53;101706.84;6139642;23;20405;-74
2021/03/03 07:53:36;;;;;;;;;;;;;;;6.96;84.58;101702.97;6164365;23;20370;-74
2021/03/03 07:56:03;;;;;;;;;;;;;;;6.98;84.75;101704.41;6163967;23;20349;-74
2021/03/03 07:58:29;;;;;;;;;;;;;;;7.00;84.89;101704.19;6190497;23;19978;-74
2021/03/03 08:00:54;;;;;;;;;;;;;;;7.00;84.95;101707.78;6139302;23;20015;-74
2021/03/03 08:03:39;;;;;;;;;;;;;;;7.03;85.22;101714.75;6139611;23;19908;-74
2021/03/03 08:06:19;;;;;;;;;;;;;;;7.05;85.32;101707.91;6190616;23;19912;-74
2021/03/03 08:08:46;;;;;;;;;;;;;;;7.06;85.45;101722.56;6139206;23;19908;-74
2021/03/03 08:11:11;;;;;;;;;;;;;;;7.09;86.64;101713.78;6163814;23;19912;-74
2021/03/03 08:13:38;;;;;;;;;;;;;;;7.11;86.52;101723.50;6163679;23;19948;-73
2021/03/03 08:16:04;;;;;;;;;;;;;;;7.15;87.03;101721.94;6139859;23;19916;-74
2021/03/03 08:18:30;;;;;;;;;;;;;;;7.18;87.24;101715.09;6189921;23;19952;-74
2021/03/03 08:21:00;;;;;;;;;;;;;;;7.23;86.26;101719.91;6139391;23;19912;-73
2021/03/03 08:23:34;;;;;;;;;;;;;;;7.28;86.62;101717.25;6139354;23;19916;-73
2021/03/03 08:26:00;;;;;;;;;;;;;;;7.31;86.27;101722.28;6163347;23;19919;-74
2021/03/03 08:28:26;;;;;;;;;;;;;;;7.36;86.27;101720.47;6189955;23;19912;-74
2021/03/03 08:31:07;;;;;;;;;;;;;;;7.41;85.96;101727.19;6163032;23;20377;-74
2021/03/03 08:33:39;;;;;;;;;;;;;;;7.47;86.13;101727.06;6189683;23;19917;-74
2021/03/03 08:36:07;;;;;;;;;;;;;;;7.52;85.96;101729.09;6189959;23;19940;-73
2021/03/03 08:38:32;;;;;;;;;;;;;;;7.58;85.68;101728.97;6190457;23;19912;-73
2021/03/03 08:41:16;;;;;;;;;;;;;;;7.64;85.54;101738.22;6189155;23;19918;-74
2021/03/03 08:43:42;;;;;;;;;;;;;;;7.70;85.82;101730.84;6163173;23;19916;-74
2021/03/03 08:46:20;;;;;;;;;;;;;;;7.75;85.38;101731.81;6190257;23;19908;-74
2021/03/03 08:48:57;;;;;;;;;;;;;;;7.83;85.46;101725.88;6189774;23;19916;-75
2021/03/03 08:51:29;;;;;;;;;;;;;;;7.90;84.97;101728.50;6189911;23;19914;-74
2021/03/03 08:53:55;;;;;;;;;;;;;;;7.95;85.10;101722.22;6189843;23;19916;-74
2021/03/03 08:56:39;;;;;;;;;;;;;;;8.03;84.50;101732.91;6163876;23;19951;-74
2021/03/03 08:59:05;;;;;;;;;;;;;;;8.10;84.04;101730.81;6189106;23;20334;-74
2021/03/03 09:01:49;;;;;;;;;;;;;;;8.17;84.08;101731.50;6188232;23;19908;-73
2021/03/03 09:04:15;;;;;;;;;;;;;;;8.26;85.20;101726.41;6190156;23;19909;-73
2021/03/03 09:06:41;;;;;;;;;;;;;;;8.36;86.21;101723.84;6163943;23;20405;-72
2021/03/03 09:09:06;;;;;;;;;;;;;;;8.45;86.44;101725.13;6163082;23;19916;-72
2021/03/03 09:11:32;;;;;;;;;;;;;;;8.56;86.85;101717.84;6163738;23;19909;-72
2021/03/03 09:13:58;;;;;;;;;;;;;;;8.65;86.70;101716.31;6138517;23;19920;-74
2021/03/03 09:16:24;;;;;;;;;;;;;;;8.73;86.72;101717.84;6138832;23;20402;-72
2021/03/03 09:19:08;;;;;;;;;;;;;;;8.81;86.64;101709.09;6163408;23;19950;-72
2021/03/03 09:21:33;;;;;;;;;;;;;;;8.91;86.67;101709.28;6138430;23;20345;-73
2021/03/03 09:24:08;;;;;;;;;;;;;;;9.02;85.91;101710.22;6188927;23;19912;-73
2021/03/03 09:26:34;;;;;;;;;;;;;;;9.16;86.66;101711.56;6189588;23;20297;-73
2021/03/03 09:29:00;;;;;;;;;;;;;;;9.30;87.37;101717.56;6189650;23;19912;-72
2021/03/03 09:31:32;;;;;;;;;;;;;;;9.44;88.06;101709.72;6137648;23;20299;-73
2021/03/03 09:33:58;;;;;;;;;;;;;;;9.56;88.24;101710.44;6162986;23;19928;-72
2021/03/03 09:36:23;;;;;;;;;;;;;;;9.72;88.58;101707.84;6163888;23;19908;-72
2021/03/03 09:38:56;;;;;;;;;;;;;;;9.89;90.01;101714.16;6138029;23;19916;-74
2021/03/03 09:41:21;;;;;;;;;;;;;;;10.04;89.66;101714.31;6114188;23;19915;-73
2021/03/03 09:44:11;;;;;;;;;;;;;;;10.20;88.48;101714.50;6163085;23;19928;-74
2021/03/03 09:46:56;;;;;;;;;;;;;;;10.38;87.95;101716.06;6188143;23;19908;-73
2021/03/03 09:49:22;;;;;;;;;;;;;;;10.58;87.90;101719.03;6138128;23;19909;-73
2021/03/03 09:51:48;;;;;;;;;;;;;;;10.75;87.22;101710.53;6163158;23;19908;-74
2021/03/03 09:54:26;;;;;;;;;;;;;;;10.94;88.30;101709.03;6163021;23;19935;-74
2021/03/03 09:56:51;;;;;;;;;;;;;;;11.14;87.18;101716.69;6188784;23;19909;-74
2021/03/03 09:59:17;;;;;;;;;;;;;;;11.32;87.15;101720.94;6162542;23;20355;-74
2021/03/03 10:01:42;;;;;;;;;;;;;;;11.48;84.96;101727.44;6163057;23;19935;-74
2021/03/03 10:04:07;;;;;;;;;;;;;;;11.65;85.96;101718.06;6162927;23;19908;-74
2021/03/03 10:06:33;;;;;;;;;;;;;;;11.80;86.92;101715.31;6163307;23;19908;-73
2021/03/03 10:08:58;;;;;;;;;;;;;;;11.91;84.60;101716.22;6162882;23;19963;-74
2021/03/03 10:11:23;;;;;;;;;;;;;;;12.01;84.73;101721.81;6113708;23;19970;-73
2021/03/03 10:13:49;;;;;;;;;;;;;;;12.12;85.00;101729.09;6113695;23;19912;-74
2021/03/03 10:16:15;;;;;;;;;;;;;;;12.20;83.91;101717.41;6138320;23;19908;-74
2021/03/03 10:18:55;;;;;;;;;;;;;;;12.29;83.33;101718.53;6188620;23;19912;-74
2021/03/03 10:21:20;;;;;;;;;;;;;;;12.38;83.89;101712.41;6138046;23;19908;-73
2021/03/03 10:23:46;;;;;;;;;;;;;;;12.46;84.55;101712.69;6138243;23;19908;-75
2021/03/03 10:26:11;;;;;;;;;;;;;;;12.51;83.68;101709.94;6162683;23;19908;-74
2021/03/03 10:28:36;;;;;;;;;;;;;;;12.58;82.30;101700.44;6188546;23;19916;-73
2021/03/03 10:31:02;;;;;;;;;;;;;;;12.65;83.32;101698.22;6188506;23;19909;-74
2021/03/03 10:33:28;;;;;;;;;;;;;;;12.72;82.62;101696.81;6162282;23;19943;-74
2021/03/03 10:35:54;;;;;;;;;;;;;;;12.80;82.42;101694.59;6162759;23;19912;-74
2021/03/03 10:38:20;;;;;;;;;;;;;;;12.86;80.84;101699.88;6189232;23;19912;-74
2021/03/03 10:40:45;;;;;;;;;;;;;;;12.96;81.00;101690.66;6137512;23;19924;-73
2021/03/03 10:43:11;;;;;;;;;;;;;;;13.06;81.48;101687.00;6162428;23;19909;-74
2021/03/03 10:45:37;;;;;;;;;;;;;;;13.13;80.68;101691.19;6138337;23;19975;-74
2021/03/03 10:48:02;;;;;;;;;;;;;;;13.23;80.10;101683.91;6162257;23;20345;-74
2021/03/03 10:50:30;;;;;;;;;;;;;;;13.34;80.37;101693.94;6113390;23;19994;-74
2021/03/03 10:53:03;;;;;;;;;;;;;;;13.44;81.26;101695.88;6114365;23;19945;-74
2021/03/03 10:55:35;;;;;;;;;;;;;;;13.51;79.13;101700.03;6188532;23;19923;-75
2021/03/03 10:58:07;;;;;;;;;;;;;;;13.61;79.12;101699.16;6161871;23;19912;-74
2021/03/03 11:00:51;;;;;;;;;;;;;;;13.72;78.21;101702.72;6138040;23;19908;-75
2021/03/03 11:03:17;;;;;;;;;;;;;;;13.83;79.43;101702.38;6137996;23;20283;-74
2021/03/03 11:05:42;;;;;;;;;;;;;;;13.95;79.94;101696.44;6137162;23;19915;-75
2021/03/03 11:08:07;;;;;;;;;;;;;;;14.09;80.42;101705.84;6162569;23;19916;-74
2021/03/03 11:10:33;;;;;;;;;;;;;;;14.20;79.54;101694.63;6161596;23;20242;-75
2021/03/03 11:13:01;;;;;;;;;;;;;;;14.33;78.42;101699.56;6137402;23;19963;-75
2021/03/03 11:15:27;;;;;;;;;;;;;;;14.46;78.78;101700.88;6162541;23;19964;-72
2021/03/03 11:17:52;;;;;;;;;;;;;;;14.57;77.40;101699.72;6188784;23;19912;-72
2021/03/03 11:20:17;;;;;;;;;;;;;;;14.75;80.76;101700.94;6137639;23;19932;-72
2021/03/03 11:22:43;;;;;;;;;;;;;;;14.89;79.84;101692.69;6188773;23;20441;-72
2021/03/03 11:25:08;;;;;;;;;;;;;;;15.07;79.79;101688.31;6137868;23;19957;-71
2021/03/03 11:27:34;;;;;;;;;;;;;;;15.22;80.39;101682.56;6161816;23;19916;-71
2021/03/03 11:29:59;;;;;;;;;;;;;;;15.35;79.17;101675.41;6161075;23;19912;-72
2021/03/03 11:32:24;;;;;;;;;;;;;;;15.45;78.17;101675.28;6162552;23;19908;-71
2021/03/03 11:34:50;;;;;;;;;;;;;;;15.57;77.97;101672.91;6137288;23;19939;-72
2021/03/03 11:37:16;;;;;;;;;;;;;;;15.67;75.33;101671.94;6188761;23;19919;-71
2021/03/03 11:39:41;;;;;;;;;;;;;;;15.76;75.88;101669.31;6137907;23;20263;-72
2021/03/03 11:42:07;;;;;;;;;;;;;;;15.83;75.31;101667.81;6137501;23;19915;-72
2021/03/03 11:44:32;;;;;;;;;;;;;;;15.89;74.53;101665.78;6137560;23;20238;-72
2021/03/03 11:46:57;;;;;;;;;;;;;;;15.98;74.72;101668.75;6188734;23;19912;-72
2021/03/03 11:49:23;;;;;;;;;;;;;;;16.05;75.54;101663.59;6113370;23;19916;-72
2021/03/03 11:51:48;;;;;;;;;;;;;;;16.09;73.88;101661.84;6162350;23;19908;-72
2021/03/03 11:54:13;;;;;;;;;;;;;;;16.12;74.75;101664.03;6137909;23;20300;-72
2021/03/03 11:56:39;;;;;;;;;;;;;;;16.17;73.57;101649.13;6161873;23;19991;-72
2021/03/03 11:59:04;;;;;;;;;;;;;;;16.19;74.18;101650.50;6186571;23;20353;-72
2021/03/03 12:01:29;;;;;;;;;;;;;;;16.24;75.25;101649.56;6162289;23;20016;-72
2021/03/03 12:03:55;;;;;;;;;;;;;;;16.25;75.58;101643.66;6161709;23;19912;-72
2021/03/03 12:06:20;;;;;;;;;;;;;;;16.27;75.04;101641.41;6188714;23;19963;-72
2021/03/03 12:08:45;;;;;;;;;;;;;;;16.27;75.42;101647.00;6188516;23;19912;-72
2021/03/03 12:11:11;;;;;;;;;;;;;;;16.32;75.96;101643.25;6161969;23;19912;-72
2021/03/03 12:13:36;;;;;;;;;;;;;;;16.38;75.46;101635.59;6188201;23;19975;-72
2021/03/03 12:16:02;;;;;;;;;;;;;;;16.45;74.21;101639.69;6162820;23;19967;-72
2021/03/03 12:18:27;;;;;;;;;;;;;;;16.47;74.19;101634.59;6189889;23;19936;-72
2021/03/03 12:20:52;;;;;;;;;;;;;;;16.57;75.48;101641.16;6190322;23;20298;-72
2021/03/03 12:23:18;;;;;;;;;;;;;;;16.63;76.93;101635.19;6164280;23;19948;-72
2021/03/03 12:25:43;;;;;;;;;;;;;;;16.70;76.41;101640.38;6189788;23;20255;-72
2021/03/03 12:28:08;;;;;;;;;;;;;;;16.71;75.97;101642.88;6189884;23;19908;-72
2021/03/03 12:30:34;;;;;;;;;;;;;;;16.75;74.86;101626.28;6189490;23;19919;-72
2021/03/03 12:32:59;;;;;;;;;;;;;;;16.78;73.37;101624.84;6163356;23;20242;-72
2021/03/03 12:35:24;;;;;;;;;;;;;;;16.81;73.50;101622.25;6163939;23;19905;-72
2021/03/03 12:37:50;;;;;;;;;;;;;;;16.86;74.17;101618.53;6190307;23;19908;-71
2021/03/03 12:40:15;;;;;;;;;;;;;;;16.87;74.47;101621.00;6163389;23;20500;-72
2021/03/03 12:42:40;;;;;;;;;;;;;;;16.89;73.98;101621.53;6190156;23;19908;-72